Time;durP1;ratioP1;P1;durP2;ratioP2;P2;SDS_P1;SDS_P2;PMS_P1;PMS_P2;Temp;Humidity;BMP_temperature;BMP_pressure;BME280_temperature;BME280_humidity;BME280_pressure;Samples;Min_cycle;Max_cycle;Signal;HPM_P1;HPM_P2
2022/11/14 00:00:50;;;;;;;8.48;5.63;;;;;;;8.52;78.39;101468.91;6018223;23;20051;-57
2022/11/14 00:03:36;;;;;;;7.25;4.90;;;;;;;8.48;79.31;101473.16;6039103;23;20437;-55
2022/11/14 00:06:22;;;;;;;;;;;;;;;8.49;79.79;101469.34;6018340;23;20047;-53
2022/11/14 00:09:08;;;;;;;8.93;5.68;;;;;;;8.50;79.04;101466.41;6038236;23;20320;-54
2022/11/14 00:11:54;;;;;;;;;;;;;;;8.52;80.01;101460.75;6039607;23;20034;-51
2022/11/14 00:14:40;;;;;;;8.93;5.38;;;;;;;8.48;79.14;101468.53;6023111;23;19918;-55
2022/11/14 00:17:26;;;;;;;11.20;4.90;;;;;;;8.48;79.51;101460.38;6039049;23;20023;-51
2022/11/14 00:20:12;;;;;;;;;;;;;;;8.56;79.19;101456.47;6039751;23;20459;-50
2022/11/14 00:22:59;;;;;;;8.63;5.22;;;;;;;8.56;79.53;101453.75;6038808;23;20001;-52
2022/11/14 00:25:46;;;;;;;8.13;5.10;;;;;;;8.55;78.78;101454.00;6039507;23;20381;-54
2022/11/14 00:28:32;;;;;;;10.23;5.20;;;;;;;8.52;78.87;101458.03;6017345;23;20023;-52
2022/11/14 00:31:18;;;;;;;;;;;;;;;8.43;79.12;101454.84;6040002;23;20382;-57
2022/11/14 00:34:05;;;;;;;9.90;5.50;;;;;;;8.43;79.77;101456.75;6039007;23;20340;-56
2022/11/14 00:36:51;;;;;;;8.13;5.10;;;;;;;8.43;79.25;101456.75;6039551;23;20023;-55
2022/11/14 00:39:37;;;;;;;9.90;5.50;;;;;;;8.38;79.96;101446.56;6038886;23;20330;-54
2022/11/14 00:42:23;;;;;;;10.13;5.38;;;;;;;8.31;79.89;101440.44;6039541;23;20023;-57
2022/11/14 00:45:09;;;;;;;8.95;5.43;;;;;;;8.26;79.96;101443.84;6039730;23;20444;-55
2022/11/14 00:47:55;;;;;;;;;;;;;;;8.25;80.07;101438.66;6041699;23;20023;-54
2022/11/14 00:50:42;;;;;;;8.45;5.00;;;;;;;8.25;80.78;101433.22;6040408;23;20000;-56
2022/11/14 00:53:28;;;;;;;8.27;5.15;;;;;;;8.22;79.99;101429.09;6040853;23;20102;-56
2022/11/14 00:56:14;;;;;;;9.57;5.28;;;;;;;8.19;81.61;101436.91;6040835;23;20024;-55
2022/11/14 00:59:00;;;;;;;10.52;5.47;;;;;;;8.20;80.47;101433.13;6041055;23;20106;-55
2022/11/14 01:01:46;;;;;;;8.05;4.88;;;;;;;8.16;80.93;101432.78;6040298;23;20023;-53
2022/11/14 01:04:32;;;;;;;10.05;5.20;;;;;;;8.15;80.94;101424.84;6040991;23;20407;-53
2022/11/14 01:07:18;;;;;;;8.65;5.50;;;;;;;8.16;81.79;101424.63;6040758;23;20440;-56
2022/11/14 01:10:05;;;;;;;8.88;5.57;;;;;;;8.18;80.76;101429.81;6041123;23;20401;-52
2022/11/14 01:12:51;;;;;;;8.00;5.25;;;;;;;8.10;81.62;101421.00;6040320;23;20019;-53
2022/11/14 01:15:47;;;;;;;8.82;5.38;;;;;;;8.03;80.88;101416.72;6040439;23;20342;-51
2022/11/14 01:18:34;;;;;;;9.40;5.53;;;;;;;7.97;81.87;101414.97;6040760;23;20027;-52
2022/11/14 01:21:20;;;;;;;10.10;5.82;;;;;;;7.91;81.63;101405.84;6018707;23;20757;-53
2022/11/14 01:24:06;;;;;;;;;;;;;;;7.84;82.06;101402.44;6019600;23;20026;-51
2022/11/14 01:26:53;;;;;;;;;;;;;;;7.88;82.08;101403.63;6041338;23;19917;-51
2022/11/14 01:29:39;;;;;;;9.18;5.30;;;;;;;7.83;82.13;101396.19;6019616;23;19921;-57
2022/11/14 01:32:26;;;;;;;;;;;;;;;7.83;82.53;101393.47;6040664;23;20023;-54
2022/11/14 01:35:12;;;;;;;9.38;5.68;;;;;;;7.83;83.11;101387.22;6040534;23;20331;-58
2022/11/14 01:37:58;;;;;;;9.60;5.80;;;;;;;7.86;83.21;101381.31;6040506;23;20023;-58
2022/11/14 01:40:44;;;;;;;11.68;5.63;;;;;;;7.86;82.98;101370.47;6040432;23;20448;-54
2022/11/14 01:43:34;;;;;;;10.60;5.90;;;;;;;7.78;82.83;101373.56;6018776;23;20326;-54
2022/11/14 01:46:23;;;;;;;9.45;5.60;;;;;;;7.74;83.26;101367.75;6041270;23;20390;-51
2022/11/14 01:49:17;;;;;;;11.18;5.72;;;;;;;7.76;83.59;101356.69;6040900;23;20019;-56
2022/11/14 01:52:07;;;;;;;10.25;6.00;;;;;;;7.67;83.58;101358.91;6019242;23;20094;-54
2022/11/14 01:54:57;;;;;;;11.55;6.30;;;;;;;7.58;83.75;101353.03;6018694;23;20488;-52
2022/11/14 01:57:46;;;;;;;13.20;5.95;;;;;;;7.61;84.38;101360.69;6019292;23;20023;-52
2022/11/14 02:00:31;;;;;;;11.45;7.03;;;;;;;7.57;84.45;101355.97;6040453;23;20026;-56
2022/11/14 02:03:18;;;;;;;13.88;6.50;;;;;;;7.58;84.46;101350.31;6039872;23;20023;-52
2022/11/14 02:06:06;;;;;;;10.40;6.30;;;;;;;7.55;84.03;101345.38;6040384;23;20031;-51
2022/11/14 02:08:53;;;;;;;8.63;6.20;;;;;;;7.45;84.33;101343.22;6040088;23;20024;-50
2022/11/14 02:11:41;;;;;;;10.48;6.47;;;;;;;7.40;85.05;101340.38;6039651;23;20029;-50
2022/11/14 02:14:28;;;;;;;11.73;6.95;;;;;;;7.47;85.50;101341.09;6039273;23;20019;-56
2022/11/14 02:17:15;;;;;;;10.98;7.00;;;;;;;7.52;84.82;101337.69;6018894;23;20046;-57
2022/11/14 02:20:21;;;;;;;11.57;7.45;;;;;;;7.48;84.00;101331.09;6022723;23;20024;-55
2022/11/14 02:23:08;;;;;;;11.52;7.22;;;;;;;7.44;84.36;101319.06;6038628;23;20023;-57
2022/11/14 02:25:54;;;;;;;11.77;7.60;;;;;;;7.44;85.20;101317.19;6040137;23;20026;-51
2022/11/14 02:28:40;;;;;;;12.00;7.10;;;;;;;7.35;85.26;101312.34;6040272;23;20102;-56
2022/11/14 02:31:26;;;;;;;12.27;7.13;;;;;;;7.37;85.55;101312.94;6040595;23;20355;-53
2022/11/14 02:34:15;;;;;;;12.52;7.57;;;;;;;7.39;85.23;101313.53;6039873;23;20019;-57
2022/11/14 02:37:01;;;;;;;13.38;8.20;;;;;;;7.30;85.13;101314.94;6039868;23;20294;-56
2022/11/14 02:39:47;;;;;;;;;;;;;;;7.25;85.75;101304.78;6040511;23;20102;-57
2022/11/14 02:42:34;;;;;;;12.38;7.75;;;;;;;7.22;85.70;101310.69;6018805;23;19917;-58
2022/11/14 02:45:20;;;;;;;12.60;7.72;;;;;;;7.28;85.20;101311.63;6018322;23;20042;-56
2022/11/14 02:48:06;;;;;;;;;;;;;;;7.31;86.40;101311.16;6040492;23;20027;-56
2022/11/14 02:50:52;;;;;;;13.13;8.27;;;;;;;7.38;85.90;101311.84;6039667;23;19922;-55
2022/11/14 02:53:38;;;;;;;12.35;8.25;;;;;;;7.37;84.54;101310.22;6039480;23;20023;-56
2022/11/14 02:56:24;;;;;;;13.30;8.02;;;;;;;7.26;85.22;101309.13;6040195;23;20365;-57
2022/11/14 02:59:10;;;;;;;15.90;7.95;;;;;;;7.20;85.02;101310.91;6018592;23;20054;-57
2022/11/14 03:01:56;;;;;;;11.75;7.90;;;;;;;7.21;85.91;101317.97;6038971;23;20023;-54
2022/11/14 03:04:43;;;;;;;;;;;;;;;7.26;86.30;101319.97;6039981;23;20019;-57
2022/11/14 03:07:29;;;;;;;11.40;7.80;;;;;;;7.33;85.48;101311.75;6039710;23;19918;-56
2022/11/14 03:10:16;;;;;;;;;;;;;;;7.34;85.42;101310.69;6040297;23;20046;-57
2022/11/14 03:13:01;;;;;;;13.30;8.35;;;;;;;7.29;84.82;101314.09;6039016;23;19918;-56
2022/11/14 03:15:48;;;;;;;12.75;8.68;;;;;;;7.21;84.77;101311.72;6039323;23;20050;-54
2022/11/14 03:18:34;;;;;;;12.50;8.77;;;;;;;7.18;85.85;101310.31;6039619;23;20023;-57
2022/11/14 03:21:21;;;;;;;12.25;8.27;;;;;;;7.15;85.73;101307.25;6039485;23;20495;-57
2022/11/14 03:24:07;;;;;;;12.52;8.32;;;;;;;7.14;85.93;101303.69;6018241;23;20023;-55
2022/11/14 03:26:54;;;;;;;13.25;9.13;;;;;;;7.14;85.50;101294.75;6040062;23;20043;-56
2022/11/14 03:29:39;;;;;;;12.40;8.43;;;;;;;7.07;85.68;101300.28;6019421;23;20046;-57
2022/11/14 03:32:25;;;;;;;15.00;9.52;;;;;;;6.94;85.53;101301.31;6040158;23;20023;-55
2022/11/14 03:35:11;;;;;;;13.27;9.30;;;;;;;6.88;86.38;101298.69;6039514;23;20022;-56
2022/11/14 03:37:57;;;;;;;14.18;9.27;;;;;;;6.80;86.98;101300.69;6038631;23;20019;-52
2022/11/14 03:40:44;;;;;;;13.05;9.10;;;;;;;6.76;86.81;101296.78;6039940;23;20019;-63
2022/11/14 03:43:32;;;;;;;15.27;9.73;;;;;;;6.69;87.14;101292.53;6018165;23;20023;-55
2022/11/14 03:46:18;;;;;;;13.70;9.20;;;;;;;6.68;87.97;101286.28;6037532;23;20023;-51
2022/11/14 03:49:04;;;;;;;;;;;;;;;6.65;87.48;101281.31;6014238;23;20098;-55
2022/11/14 03:51:50;;;;;;;15.77;9.52;;;;;;;6.65;87.21;101292.16;6039449;23;19918;-56
2022/11/14 03:54:36;;;;;;;14.50;9.20;;;;;;;6.63;87.83;101286.16;6039026;23;20749;-56
2022/11/14 03:57:22;;;;;;;15.38;9.10;;;;;;;6.59;88.32;101276.81;6018483;23;20027;-55
2022/11/14 04:00:09;;;;;;;16.25;9.07;;;;;;;6.60;88.23;101273.06;6039669;23;20034;-56
2022/11/14 04:02:57;;;;;;;14.30;9.65;;;;;;;6.63;88.14;101277.22;6018436;23;20110;-55
2022/11/14 04:05:46;;;;;;;14.75;9.38;;;;;;;6.55;87.86;101271.06;6038988;23;20043;-56
2022/11/14 04:08:32;;;;;;;13.52;9.68;;;;;;;6.49;88.80;101271.16;6038650;23;20453;-57
2022/11/14 04:11:19;;;;;;;14.27;10.43;;;;;;;6.50;88.80;101261.97;6039780;23;20352;-54
2022/11/14 04:14:05;;;;;;;15.32;9.75;;;;;;;6.50;88.49;101256.56;6039273;23;20023;-54
2022/11/14 04:16:51;;;;;;;;;;;;;;;6.49;88.61;101250.31;6039800;23;20098;-56
2022/11/14 04:19:37;;;;;;;15.02;9.80;;;;;;;6.43;88.65;101256.66;6039815;23;19921;-54
2022/11/14 04:22:23;;;;;;;17.02;10.55;;;;;;;6.41;88.83;101250.66;6042413;23;20030;-56
2022/11/14 04:25:09;;;;;;;16.55;10.32;;;;;;;6.38;89.48;101253.81;6042561;23;20023;-57
2022/11/14 04:27:55;;;;;;;18.30;10.60;;;;;;;6.36;89.25;101245.09;6042435;23;20340;-57
2022/11/14 04:30:41;;;;;;;16.33;11.00;;;;;;;6.35;89.23;101249.69;6017131;23;20027;-55
2022/11/14 04:33:27;;;;;;;;;;;;;;;6.36;89.26;101251.34;6021488;23;20407;-53
2022/11/14 04:36:12;;;;;;;;;;;;;;;6.39;89.62;101245.44;6042805;23;20283;-56
2022/11/14 04:38:59;;;;;;;18.80;10.82;;;;;;;6.47;88.98;101247.03;6041712;23;20240;-55
2022/11/14 04:41:45;;;;;;;14.95;10.50;;;;;;;6.45;88.38;101251.03;6042529;23;20042;-55
2022/11/14 04:44:31;;;;;;;;;;;;;;;6.42;88.72;101254.16;6021691;23;20023;-51
2022/11/14 04:47:18;;;;;;;15.10;9.95;;;;;;;6.33;88.85;101262.63;6042009;23;19921;-53
2022/11/14 04:50:04;;;;;;;15.07;10.05;;;;;;;6.30;89.43;101246.84;6021524;23;20050;-49
2022/11/14 04:52:52;;;;;;;18.80;10.50;;;;;;;6.29;88.83;101250.59;6042292;23;20034;-52
2022/11/14 04:55:39;;;;;;;19.88;10.77;;;;;;;6.25;89.35;101246.69;5996569;23;20029;-53
2022/11/14 04:58:25;;;;;;;15.50;10.48;;;;;;;6.23;89.59;101246.13;6020367;23;20038;-51
2022/11/14 05:01:13;;;;;;;17.63;10.07;;;;;;;6.17;89.43;101247.00;6041692;23;20015;-53
2022/11/14 05:03:59;;;;;;;18.25;11.43;;;;;;;6.12;89.95;101238.75;6041013;23;20026;-51
2022/11/14 05:06:45;;;;;;;18.05;10.90;;;;;;;6.11;89.67;101232.53;6041148;23;20098;-50
2022/11/14 05:09:31;;;;;;;16.80;11.07;;;;;;;6.07;90.62;101225.09;6000002;23;20023;-52
2022/11/14 05:12:17;;;;;;;;;;;;;;;6.08;90.38;101226.72;6041703;23;20340;-52
2022/11/14 05:15:04;;;;;;;13.88;10.10;;;;;;;6.08;90.80;101221.31;6028429;23;20231;-55
2022/11/14 05:17:50;;;;;;;16.75;11.20;;;;;;;6.13;90.25;101219.59;6041221;23;20020;-56
2022/11/14 05:20:36;;;;;;;17.25;11.23;;;;;;;6.07;89.79;101217.81;6040981;23;20023;-54
2022/11/14 05:23:23;;;;;;;16.60;11.63;;;;;;;6.03;90.14;101210.38;6040729;23;20027;-52
2022/11/14 05:26:13;;;;;;;14.63;10.88;;;;;;;6.07;90.80;101214.28;6041177;23;20333;-55
2022/11/14 05:28:59;;;;;;;16.70;10.82;;;;;;;6.04;90.34;101215.56;6042335;23;20023;-56
2022/11/14 05:31:45;;;;;;;16.42;10.80;;;;;;;5.96;90.59;101208.59;6040767;23;20023;-55
2022/11/14 05:34:31;;;;;;;15.70;10.52;;;;;;;5.90;90.78;101208.63;6040123;23;20422;-55
2022/11/14 05:37:17;;;;;;;;;;;;;;;5.87;91.26;101201.81;6037636;23;20031;-56
2022/11/14 05:40:04;;;;;;;15.48;10.55;;;;;;;5.83;91.33;101202.47;6036352;23;19922;-51
2022/11/14 05:42:55;;;;;;;19.20;11.10;;;;;;;5.85;91.66;101201.19;6036047;23;20457;-51
2022/11/14 05:45:41;;;;;;;15.68;10.60;;;;;;;5.90;91.60;101197.81;6035653;23;20023;-51
2022/11/14 05:48:27;;;;;;;;;;;;;;;5.94;91.06;101194.47;6037219;23;20031;-50
2022/11/14 05:51:14;;;;;;;17.50;11.13;;;;;;;5.85;90.88;101195.78;6035084;23;19921;-49
2022/11/14 05:54:00;;;;;;;18.17;10.98;;;;;;;5.78;91.39;101184.22;6034992;23;20102;-49
2022/11/14 05:56:46;;;;;;;18.85;11.32;;;;;;;5.73;91.65;101184.09;6036846;23;20030;-50
2022/11/14 05:59:32;;;;;;;;;;;;;;;5.72;92.23;101177.03;6036898;23;20102;-52
2022/11/14 06:02:18;;;;;;;16.92;10.63;;;;;;;5.75;91.83;101182.00;6036939;23;19922;-50
2022/11/14 06:05:05;;;;;;;16.00;11.10;;;;;;;5.75;91.74;101176.59;6036533;23;20023;-52
2022/11/14 06:07:55;;;;;;;16.05;10.95;;;;;;;5.69;91.84;101180.19;6036579;23;20026;-54
2022/11/14 06:10:41;;;;;;;15.73;10.88;;;;;;;5.78;93.83;101189.66;6036911;23;20071;-54
2022/11/14 06:13:27;;;;;;;16.30;10.52;;;;;;;5.77;91.85;101187.97;6036228;23;20023;-54
2022/11/14 06:16:16;;;;;;;17.65;10.73;;;;;;;5.71;92.19;101195.13;6035140;23;20750;-53
2022/11/14 06:19:04;;;;;;;21.70;11.32;;;;;;;5.77;92.35;101193.38;6036208;23;20456;-54
2022/11/14 06:21:50;;;;;;;18.30;10.82;;;;;;;5.85;91.34;101189.56;6036285;23;20538;-52
2022/11/14 06:24:36;;;;;;;21.20;11.00;;;;;;;5.77;91.17;101193.38;6035997;23;20054;-54
2022/11/14 06:27:22;;;;;;;;;;;;;;;5.74;91.13;101201.94;6036773;23;20031;-55
2022/11/14 06:30:08;;;;;;;;;;;;;;;5.70;91.30;101200.75;6035134;23;19926;-55
2022/11/14 06:32:58;;;;;;;;;;;;;;;5.62;91.41;101190.25;6035264;23;19928;-55
2022/11/14 06:35:43;;;;;;;;;;;;;;;5.63;92.20;101192.75;6036254;23;20328;-53
2022/11/14 06:38:30;;;;;;;;;;;;;;;5.77;91.97;101193.38;6035892;23;19918;-52
2022/11/14 06:41:18;;;;;;;;;;;;;;;5.79;90.98;101196.69;6035464;23;19922;-56
2022/11/14 06:44:06;;;;;;;;;;;;;;;5.77;90.50;101198.78;6036476;23;19928;-56
2022/11/14 06:46:51;;;;;;;;;;;;;;;5.75;90.67;101198.22;6036538;23;20386;-54
2022/11/14 06:49:38;;;;;;;;;;;;;;;5.74;90.70;101191.97;6035686;23;19926;-55
2022/11/14 06:52:26;;;;;;;;;;;;;;;5.74;91.04;101194.66;6036214;23;19922;-51
2022/11/14 06:55:12;;;;;;;;;;;;;;;5.76;91.04;101197.16;6036264;23;19953;-55
2022/11/14 06:57:58;;;;;;;;;;;;;;;5.76;91.20;101195.25;6014862;23;20232;-53
2022/11/14 07:00:44;;;;;;;;;;;;;;;5.72;91.14;101195.94;6039941;23;19918;-53
2022/11/14 07:03:30;;;;;;;;;;;;;;;5.58;91.21;101199.84;6040023;23;19990;-51
2022/11/14 07:06:18;;;;;;;;;;;;;;;5.50;91.87;101199.09;6039897;23;20352;-51
2022/11/14 07:09:04;;;;;;;;;;;;;;;5.59;92.25;101201.53;6038629;23;20359;-54
2022/11/14 07:11:50;;;;;;;;;;;;;;;5.66;91.77;101202.28;6039594;23;20318;-55
2022/11/14 07:14:36;;;;;;;;;;;;;;;5.69;91.72;101201.81;6039480;23;19918;-51
2022/11/14 07:17:22;;;;;;;;;;;;;;;5.73;91.19;101201.13;6039497;23;19918;-56
2022/11/14 07:20:17;;;;;;;;;;;;;;;5.71;91.03;101205.94;6020054;23;19922;-55
2022/11/14 07:23:03;;;;;;;;;;;;;;;5.68;91.29;101208.28;6039266;23;20012;-51
2022/11/14 07:25:49;;;;;;;;;;;;;;;5.74;91.51;101204.66;6039671;23;19918;-52
2022/11/14 07:28:36;;;;;;;;;;;;;;;5.74;91.37;101204.66;6039299;23;19918;-52
2022/11/14 07:31:22;;;;;;;;;;;;;;;5.73;91.42;101208.44;6039605;23;19965;-54
2022/11/14 07:34:10;;;;;;;;;;;;;;;5.73;91.83;101205.72;6017953;23;19969;-52
2022/11/14 07:36:56;;;;;;;;;;;;;;;5.81;91.42;101199.19;6018428;23;19918;-53
2022/11/14 07:39:42;;;;;;;;;;;;;;;5.79;91.86;101206.69;6038445;23;19974;-53
2022/11/14 07:42:28;;;;;;;;;;;;;;;5.76;91.69;101189.03;6037364;23;19925;-53
2022/11/14 07:45:15;;;;;;;;;;;;;;;5.75;91.77;101184.69;6038872;23;19922;-55
2022/11/14 07:48:01;;;;;;;;;;;;;;;5.77;92.25;101185.28;6038175;23;20009;-52
2022/11/14 07:50:46;;;;;;;;;;;;;;;5.81;91.96;101180.25;6038544;23;19918;-52
2022/11/14 07:53:32;;;;;;;;;;;;;;;5.78;91.90;101184.22;6018605;23;19945;-54
2022/11/14 07:56:19;;;;;;;;;;;;;;;5.74;92.86;101185.72;6038912;23;19950;-52
2022/11/14 07:59:04;;;;;;;;;;;;;;;5.85;93.48;101189.56;6039460;23;19917;-52
2022/11/14 08:01:50;;;;;;;;;;;;;;;5.93;92.99;101181.94;6039980;23;19996;-51
2022/11/14 08:04:36;;;;;;;;;;;;;;;5.99;92.60;101180.25;6039801;23;19952;-52
2022/11/14 08:07:23;;;;;;;;;;;;;;;6.06;92.14;101180.16;6039066;23;19917;-53
2022/11/14 08:10:10;;;;;;;;;;;;;;;6.07;91.75;101174.53;6039654;23;19922;-53
2022/11/14 08:13:00;;;;;;;;;;;;;;;6.09;91.80;101177.81;6038949;23;19918;-52
2022/11/14 08:16:06;;;;;;;;;;;;;;;6.13;91.21;101168.19;6038151;23;19918;-52
2022/11/14 08:18:57;;;;;;;;;;;;;;;6.12;92.26;101161.13;6019366;23;20379;-52
2022/11/14 08:21:43;;;;;;;;;;;;;;;6.05;91.95;101164.97;6039222;23;19917;-52
2022/11/14 08:24:29;;;;;;;;;;;;;;;6.01;93.46;101161.91;6018497;23;19922;-51
2022/11/14 08:27:15;;;;;;;;;;;;;;;6.00;93.68;101164.84;6039667;23;19917;-49
2022/11/14 08:30:01;;;;;;;;;;;;;;;6.00;93.66;101165.66;6037431;23;19922;-51
2022/11/14 08:32:47;;;;;;;;;;;;;;;6.06;93.84;101161.22;6039078;23;19918;-51
2022/11/14 08:35:34;;;;;;;;;;;;;;;6.10;92.99;101160.53;6039317;23;19997;-51
2022/11/14 08:38:19;;;;;;;;;;;;;;;6.16;93.51;101162.31;6039675;23;19964;-52
2022/11/14 08:41:05;;;;;;;;;;;;;;;6.22;93.33;101163.28;6039881;23;19918;-51
2022/11/14 08:43:51;;;;;;;;;;;;;;;6.29;93.36;101157.78;6039508;23;19917;-52
2022/11/14 08:46:37;;;;;;;;;;;;;;;6.35;93.36;101154.13;6039780;23;20001;-54
2022/11/14 08:49:24;;;;;;;;;;;;;;;6.39;92.63;101156.13;6039581;23;19921;-52
2022/11/14 08:52:10;;;;;;;;;;;;;;;6.40;92.67;101149.69;6013843;23;20331;-51
2022/11/14 08:55:01;;;;;;;;;;;;;;;6.42;93.12;101152.13;6039478;23;20296;-52
2022/11/14 08:57:47;;;;;;;;;;;;;;;6.49;93.21;101152.03;6039567;23;19918;-51
2022/11/14 09:00:35;;;;;;;;;;;;;;;6.55;94.12;101146.53;6039620;23;20005;-51
2022/11/14 09:03:21;;;;;;;;;;;;;;;6.56;93.44;101142.75;6039462;23;19918;-50
2022/11/14 09:06:07;;;;;;;;;;;;;;;6.57;93.45;101141.72;6040014;23;20005;-49
2022/11/14 09:08:53;;;;;;;;;;;;;;;6.61;93.95;101139.34;6020145;23;19918;-49
2022/11/14 09:11:39;;;;;;;;;;;;;;;6.66;94.92;101133.22;6041150;23;19921;-48
2022/11/14 09:14:25;;;;;;;;;;;;;;;6.73;94.08;101129.34;6020018;23;19918;-48
2022/11/14 09:17:11;;;;;;;;;;;;;;;6.77;93.53;101118.88;6041094;23;19918;-49
2022/11/14 09:19:57;;;;;;;;;;;;;;;6.75;93.54;101126.41;6040968;23;20284;-52
2022/11/14 09:22:43;;;;;;;;;;;;;;;6.75;93.88;101127.22;6020324;23;19918;-49
2022/11/14 09:25:29;;;;;;;;;;;;;;;6.77;93.94;101133.25;6041312;23;19929;-48
2022/11/14 09:28:16;;;;;;;;;;;;;;;6.79;93.62;101136.53;6041542;23;20005;-49
2022/11/14 09:31:09;;;;;;;;;;;;;;;6.81;93.75;101123.59;6041192;23;19917;-51
2022/11/14 09:33:55;;;;;;;;;;;;;;;6.85;94.29;101118.50;6041028;23;19925;-51
2022/11/14 09:36:41;;;;;;;;;;;;;;;6.89;94.02;101108.88;6041125;23;19925;-49
2022/11/14 09:39:27;;;;;;;;;;;;;;;6.92;93.84;101112.97;6040917;23;19924;-50
2022/11/14 09:42:29;;;;;;;;;;;;;;;6.96;93.33;101106.03;6041208;23;20205;-49
2022/11/14 09:45:16;;;;;;;;;;;;;;;7.00;93.80;101109.94;6040865;23;20252;-54
2022/11/14 09:48:02;;;;;;;;;;;;;;;7.06;93.97;101116.28;6040796;23;20005;-50
2022/11/14 09:50:51;;;;;;;;;;;;;;;7.06;94.38;101117.09;6041107;23;19917;-53
2022/11/14 09:53:41;;;;;;;;;;;;;;;7.08;94.56;101117.69;6041019;23;19917;-52
2022/11/14 09:56:28;;;;;;;;;;;;;;;7.11;94.68;101116.38;6020236;23;19921;-52
2022/11/14 09:59:14;;;;;;;;;;;;;;;7.14;94.18;101111.31;6040782;23;20338;-49
2022/11/14 10:02:01;;;;;;;;;;;;;;;7.16;94.30;101111.91;6020290;23;19977;-52
2022/11/14 10:04:50;;;;;;;;;;;;;;;7.18;94.90;101117.91;6020173;23;20323;-49
2022/11/14 10:07:36;;;;;;;;;;;;;;;7.19;94.69;101113.31;6040995;23;20005;-52
2022/11/14 10:10:22;;;;;;;;;;;;;;;7.22;95.02;101110.94;6041027;23;19940;-52
2022/11/14 10:13:14;;;;;;;;;;;;;;;7.25;95.65;101118.59;6040604;23;20255;-51
2022/11/14 10:16:14;;;;;;;;;;;;;;;7.28;95.33;101116.47;6041015;23;19922;-52
2022/11/14 10:19:17;;;;;;;;;;;;;;;7.33;95.93;101108.44;6039919;23;20282;-54
2022/11/14 10:22:22;;;;;;;;;;;;;;;7.39;95.71;101107.50;6020842;23;20001;-52
2022/11/14 10:25:34;;;;;;;;;;;;;;;7.44;96.27;101102.19;6040451;23;20236;-51
2022/11/14 10:28:45;;;;;;;;;;;;;;;7.50;96.45;101103.91;6040334;23;19917;-49
2022/11/14 10:31:52;;;;;;;;;;;;;;;7.52;96.65;101101.78;6040191;23;19921;-51
2022/11/14 10:34:44;;;;;;;;;;;;;;;7.55;96.35;101101.34;6020062;23;19917;-52
2022/11/14 10:37:36;;;;;;;;;;;;;;;7.60;96.25;101104.13;6040632;23;19926;-47
2022/11/14 10:40:26;;;;;;;;;;;;;;;7.60;96.88;101101.44;6040612;23;19921;-49
2022/11/14 10:43:17;;;;;;;;;;;;;;;7.61;96.58;101099.53;6040653;23;19917;-51
2022/11/14 10:46:23;;;;;;;;;;;;;;;7.60;96.90;101093.28;6019336;23;19918;-50
2022/11/14 10:49:14;;;;;;;;;;;;;;;7.60;97.11;101093.28;6040584;23;20327;-51
2022/11/14 10:52:02;;;;;;;;;;;;;;;7.57;97.94;101093.75;6019615;23;19924;-52
2022/11/14 10:54:53;;;;;;;;;;;;;;;7.57;98.86;101091.03;6019034;23;19917;-52
2022/11/14 10:57:39;;;;;;;;;;;;;;;7.59;98.99;101094.34;6040235;23;20148;-50
2022/11/14 11:00:25;;;;;;;;;;;;;;;7.60;98.92;101082.44;6040672;23;19918;-49
2022/11/14 11:03:11;;;;;;;;;;;;;;;7.63;99.48;101086.56;6017899;23;19922;-49
2022/11/14 11:05:57;;;;;;;;;;;;;;;7.64;99.35;101075.44;6040206;23;19918;-49
2022/11/14 11:11:55;;;;;;;;;;;;;;;7.66;99.42;101073.31;6040169;23;19925;-51
2022/11/14 11:14:41;;;;;;;;;;;;;;;7.67;100.00;101066.00;6040011;23;19918;-51
2022/11/14 11:17:27;;;;;;;;;;;;;;;7.68;99.78;101056.81;6039845;23;20354;-52
2022/11/14 11:20:25;;;;;;;;;;;;;;;7.67;100.00;101053.28;6020601;23;20331;-52
2022/11/14 11:23:11;;;;;;;;;;;;;;;7.68;100.00;101046.78;6039116;23;19933;-50
2022/11/14 11:26:06;;;;;;;;;;;;;;;7.67;100.00;101042.44;6040203;23;19924;-51
2022/11/14 11:29:10;;;;;;;;;;;;;;;7.66;100.00;101046.22;6020118;23;19937;-50
2022/11/14 11:31:57;;;;;;;;;;;;;;;7.63;100.00;101052.13;6040062;23;19918;-52
2022/11/14 11:34:43;;;;;;;;;;;;;;;7.62;100.00;101046.94;6039244;23;19924;-51
2022/11/14 11:37:40;;;;;;;;;;;;;;;7.56;100.00;101047.91;6018774;23;19941;-51
2022/11/14 11:40:27;;;;;;;;;;;;;;;7.53;100.00;101051.94;6040108;23;19922;-48
2022/11/14 11:43:16;;;;;;;;;;;;;;;7.47;100.00;101051.00;6018836;23;19941;-51
2022/11/14 11:46:34;;;;;;;;;;;;;;;7.53;100.00;101043.81;6039965;23;19918;-51
2022/11/14 11:49:29;;;;;;;;;;;;;;;7.59;100.00;101045.53;6040041;23;20323;-50
2022/11/14 11:52:30;;;;;;;;;;;;;;;7.61;100.00;101050.72;6018680;23;19918;-54
2022/11/14 11:55:17;;;;;;;;;;;;;;;7.67;100.00;101045.16;6017590;23;20258;-52
2022/11/14 11:58:20;;;;;;;;;;;;;;;7.69;100.00;101053.84;6015445;23;19918;-52
2022/11/14 12:01:08;;;;;;;;;;;;;;;7.61;100.00;101056.97;6015731;23;19996;-50
2022/11/14 12:03:54;;;;;;;;;;;;;;;7.60;100.00;101055.34;6015379;23;19922;-50
2022/11/14 12:06:43;;;;;;;;;;;;;;;7.61;100.00;101064.28;6036328;23;19926;-49
2022/11/14 12:09:36;;;;;;;;;;;;;;;7.65;100.00;101063.56;6036335;23;19921;-51
2022/11/14 12:12:41;;;;;;;;;;;;;;;7.68;100.00;101064.97;6010817;23;20001;-52
2022/11/14 12:15:46;;;;;;;;;;;;;;;7.68;100.00;101062.25;6035694;23;20327;-53
2022/11/14 12:18:35;;;;;;;;;;;;;;;7.64;100.00;101051.03;6036192;23;19918;-50
2022/11/14 12:21:24;;;;;;;;;;;;;;;7.66;100.00;101054.34;6035662;23;19922;-53
2022/11/14 12:24:29;;;;;;;;;;;;;;;7.66;100.00;101042.69;6036005;23;19929;-50
2022/11/14 12:27:21;;;;;;;;;;;;;;;7.67;100.00;101042.44;6035367;23;20514;-53
2022/11/14 12:30:09;;;;;;;;;;;;;;;7.68;100.00;101046.78;5991368;23;19921;-50
2022/11/14 12:33:00;;;;;;;;;;;;;;;7.72;100.00;101057.16;6016220;23;19921;-50
2022/11/14 12:35:48;;;;;;;;;;;;;;;7.73;100.00;101046.06;6015070;23;19921;-51
2022/11/14 12:38:47;;;;;;;;;;;;;;;7.74;100.00;101041.47;6036037;23;20040;-51
2022/11/14 12:41:33;;;;;;;;;;;;;;;7.73;100.00;101048.78;6016297;23;19917;-50
2022/11/14 12:44:25;;;;;;;;;;;;;;;7.73;100.00;101047.97;6038295;23;20010;-49
2022/11/14 12:47:29;;;;;;;;;;;;;;;7.71;100.00;101028.38;6037413;23;19922;-53
2022/11/14 12:50:29;;;;;;;;;;;;;;;7.73;100.00;101020.84;6037876;23;19978;-52
2022/11/14 12:53:37;;;;;;;;;;;;;;;7.73;100.00;101012.69;6037531;23;20134;-52
2022/11/14 12:56:31;;;;;;;;;;;;;;;7.73;100.00;101013.53;6037332;23;20258;-51
2022/11/14 12:59:23;;;;;;;;;;;;;;;7.74;100.00;101014.34;6037769;23;19926;-50
2022/11/14 13:02:21;;;;;;;;;;;;;;;7.77;100.00;101001.13;6037721;23;19982;-52
2022/11/14 13:05:07;;;;;;;;;;;;;;;7.80;100.00;100999.81;6016429;23;19925;-51
2022/11/14 13:07:53;;;;;;;;;;;;;;;7.77;100.00;100992.13;6036934;23;20266;-51
2022/11/14 13:10:39;;;;;;;;;;;;;;;7.81;100.00;100982.44;6037943;23;19917;-50
2022/11/14 13:22:48;;;;;;;;;;;;;;;7.83;100.00;100962.16;5994465;23;19918;-53
2022/11/14 13:25:34;;;;;;;;;;;;;;;7.82;100.00;100948.84;6012872;23;20252;-51
2022/11/14 13:28:38;;;;;;;;;;;;;;;7.86;100.00;100936.41;5991849;23;19918;-52
2022/11/14 13:31:25;;;;;;;;;;;;;;;7.90;100.00;100932.16;6013024;23;20316;-50
2022/11/14 13:34:30;;;;;;;;;;;;;;;8.03;100.00;100931.81;5991835;23;19922;-51
2022/11/14 13:37:39;;;;;;;;;;;;;;;8.08;100.00;100922.91;6012586;23;19925;-53
2022/11/14 13:40:39;;;;;;;;;;;;;;;8.06;100.00;100919.66;5992125;23;20350;-51
2022/11/14 13:43:44;;;;;;;;;;;;;;;8.05;100.00;100939.69;5991912;23;20005;-53
2022/11/14 13:46:48;;;;;;;;;;;;;;;8.05;100.00;100936.97;6012912;23;19923;-53
2022/11/14 13:49:52;;;;;;;;;;;;;;;8.08;100.00;100941.91;6012272;23;19918;-53
2022/11/14 13:52:39;;;;;;;;;;;;;;;8.07;100.00;100943.00;6011451;23;20296;-50
2022/11/14 13:55:29;;;;;;;;;;;;;;;8.06;100.00;100934.03;6012488;23;19918;-50
2022/11/14 13:58:21;;;;;;;;;;;;;;;8.07;100.00;100934.84;5991304;23;19918;-48
2022/11/14 14:01:10;;;;;;;;;;;;;;;8.10;100.00;100932.47;6012302;23;19930;-50
2022/11/14 14:03:56;;;;;;;;;;;;;;;8.17;100.00;100924.13;5991305;23;20340;-50
2022/11/14 14:06:51;;;;;;;;;;;;;;;8.14;100.00;100923.81;6012459;23;20371;-51
2022/11/14 14:09:44;;;;;;;;;;;;;;;8.10;100.00;100932.47;5991423;23;20331;-52